Aviation Digital Data Service (ADDS)

Output produced by METARs form (0730 UTC 18 October 2017)
found at http://www.aviationweather.gov/adds/metars/
 
K2G4 180705Z AUTO 27004KT 10SM CLR 07/00 A3030 RMK AO1
K2G4 180645Z AUTO 27005KT 10SM CLR 07/00 A3030 RMK AO1
K2G4 180625Z AUTO 28004KT 10SM CLR 07/00 A3030 RMK AO1
K2G4 180605Z AUTO 28005KT 10SM CLR 07/00 A3030 RMK AO1
K2G4 180545Z AUTO 28005KT 10SM CLR 07/00 A3030 RMK AO1
K2G4 180525Z AUTO 26005KT 10SM CLR 06/00 A3030 RMK AO1
K2G4 180505Z AUTO 26005KT 10SM CLR 06/00 A3030 RMK AO1
K2G4 180445Z AUTO 26004KT 10SM CLR 06/00 A3030 RMK AO1
K2G4 180425Z AUTO 24005KT 10SM CLR 06/00 A3030 RMK AO1
K2G4 180405Z AUTO 24004KT 10SM CLR 06/00 A3030 RMK AO1
K2G4 180345Z AUTO 23004KT 10SM CLR 06/00 A3030 RMK AO1
K2G4 180325Z AUTO 23005KT 10SM CLR 06/00 A3029 RMK AO1
K2G4 180305Z AUTO 23005KT 10SM CLR 06/00 A3029 RMK AO1
K2G4 180245Z AUTO 24005KT 10SM CLR 06/00 A3029 RMK AO1
K2G4 180225Z AUTO 24004KT 10SM CLR 06/00 A3029 RMK AO1
K2G4 180205Z AUTO 22004KT 10SM CLR 06/00 A3029 RMK AO1
K2G4 180145Z AUTO 24004KT 10SM CLR 07/00 A3029 RMK AO1
K2G4 180125Z AUTO 25004KT 10SM CLR 07/00 A3028 RMK AO1
K2G4 180105Z AUTO 24004KT 10SM CLR 07/00 A3027 RMK AO1
K2G4 180045Z AUTO 25004KT 10SM CLR 07/00 A3027 RMK AO1
K2G4 180025Z AUTO 25004KT 10SM CLR 07/00 A3027 RMK AO1
K2G4 180005Z AUTO 26003KT 10SM CLR 07/00 A3026 RMK AO1
K2G4 172345Z AUTO 25003KT 10SM CLR 07/00 A3026 RMK AO1
K2G4 172325Z AUTO 25004KT 10SM CLR 07/01 A3026 RMK AO1
K2G4 172305Z AUTO 25003KT 10SM CLR 08/00 A3026 RMK AO1
K2G4 172245Z AUTO 00000KT 10SM CLR 08/00 A3026 RMK AO1
K2G4 172225Z AUTO 00000KT 10SM CLR 09/00 A3026 RMK AO1
K2G4 172205Z AUTO 26004KT 10SM CLR 10/00 A3026 RMK AO1
K2G4 172145Z AUTO 28004KT 10SM CLR 11/00 A3026 RMK AO1
K2G4 172125Z AUTO 29003KT 10SM CLR 11/00 A3026 RMK AO1
K2G4 172105Z AUTO 27004KT 10SM CLR 11/00 A3026 RMK AO1
K2G4 172045Z AUTO 29005KT 10SM CLR 12/00 A3026 RMK AO1
K2G4 172025Z AUTO 29004KT 10SM CLR 12/01 A3026 RMK AO1
K2G4 172005Z AUTO 31006KT 10SM CLR 12/01 A3026 RMK AO1
K2G4 171945Z AUTO 30003KT 10SM CLR 11/01 A3026 RMK AO1
K2G4 171925Z AUTO 29004KT 10SM CLR 11/00 A3026 RMK AO1
K2G4 171905Z AUTO 27003KT 10SM CLR 11/00 A3026 RMK AO1
K2G4 171845Z AUTO 32004KT 10SM CLR 11/00 A3027 RMK AO1
K2G4 171825Z AUTO 32003KT 10SM CLR 11/00 A3027 RMK AO1
K2G4 171805Z AUTO 32005KT 10SM CLR 11/00 A3028 RMK AO1
K2G4 171745Z AUTO 33005KT 10SM CLR 10/00 A3029 RMK AO1
K2G4 171725Z AUTO 29004KT 10SM CLR 10/00 A3029 RMK AO1
K2G4 171705Z AUTO 32004KT 10SM CLR 09/00 A3030 RMK AO1
K2G4 171645Z AUTO 28003KT 10SM CLR 09/00 A3031 RMK AO1
K2G4 171625Z AUTO 32006KT 10SM CLR 09/00 A3032 RMK AO1
K2G4 171605Z AUTO 30006KT 10SM CLR 08/00 A3033 RMK AO1
K2G4 171545Z AUTO 30004KT 10SM CLR 08/00 A3032 RMK AO1
K2G4 171525Z AUTO 29003KT 10SM CLR 07/00 A3033 RMK AO1
K2G4 171505Z AUTO 27007KT 242V302 10SM CLR 07/00 A3033 RMK AO1
K2G4 171445Z AUTO 30004KT 10SM CLR 07/00 A3033 RMK AO1
K2G4 171425Z AUTO 29004KT 10SM CLR 06/M01 A3033 RMK AO1
K2G4 171405Z AUTO 28003KT 10SM CLR 06/M02 A3033 RMK AO1
K2G4 171345Z AUTO 30003KT 10SM CLR 05/M01 A3033 RMK AO1
K2G4 171325Z AUTO 30003KT 10SM CLR 05/M01 A3032 RMK AO1
K2G4 171305Z AUTO 30003KT 10SM CLR 04/M01 A3031 RMK AO1
K2G4 171245Z AUTO 00000KT 10SM CLR 03/M01 A3031 RMK AO1
K2G4 171225Z AUTO 00000KT 10SM CLR 02/M01 A3030 RMK AO1
K2G4 171205Z AUTO 00000KT 10SM CLR 02/M01 A3030 RMK AO1
K2G4 171145Z AUTO 00000KT 10SM CLR 01/M01 A3029 RMK AO1
K2G4 171125Z AUTO 00000KT 10SM CLR 01/M01 A3029 RMK AO1
K2G4 171105Z AUTO 30003KT 10SM CLR 01/M01 A3028 RMK AO1
K2G4 171045Z AUTO 00000KT 10SM CLR 01/M01 A3028 RMK AO1
K2G4 171025Z AUTO 00000KT 10SM CLR 01/M01 A3028 RMK AO1
K2G4 171005Z AUTO 00000KT 10SM CLR 01/M01 A3027 RMK AO1
K2G4 170945Z AUTO 00000KT 10SM CLR 01/M01 A3027 RMK AO1
K2G4 170925Z AUTO 00000KT 10SM CLR 01/M01 A3026 RMK AO1
K2G4 170905Z AUTO 00000KT 10SM CLR 01/M01 A3026 RMK AO1
K2G4 170845Z AUTO 00000KT 10SM CLR 02/M01 A3025 RMK AO1
K2G4 170825Z AUTO 00000KT 10SM CLR 01/M01 A3025 RMK AO1
K2G4 170805Z AUTO 00000KT 10SM CLR 01/M01 A3024 RMK AO1
K2G4 170745Z AUTO 00000KT 10SM CLR 01/M01 A3025 RMK AO1